Pagina principale
METAR-TAF:

METAR-TAF

Aeroporti :

Aeroporto di Ajaccio Napoleone Bonaparte

Ajaccio, Francia

latitudine: 41-55N, longitudine: 008-48E, altezza: 6 m

Osservazione

Il bollettino è stato emesso 37 minuti fa, alle 18:00 UTC
Vento 3 kt da est, variando fra nord-est e sud-est
Temperature 13°C
Umidità 88%
Pressione 1011 hPa
Visibilità 10 km o più

METAR: LFKJ 211800Z AUTO 09003KT 040V130 9999 BKN039/// BKN052/// OVC072/// ///CB 13/11 Q1011 TEMPO SHRA

Ora: 19:37 (18:37 UTC)

Previsione

Il bollettino è stato emesso 4 ore e 37 minuti fa, alle 14:00 UTC
Previsione valida dal 21 alle 15 UTC al 22 alle 15 UTC
Vento 5 kt da sud/sud-ovest
Visibilità 10 km o più
Poco nuvoloso ad un'altezza di 5000 ft
Temporaneamente
dal 21 alle 16 UTC al 22 alle 07 UTC
Nubi sparse ad un'altezza di 2000 ft, Cumulo congesto.
Nuvoloso ad un'altezza di 3000 ft
rovesci di pioggia

TAF: LFKJ 211400Z 2115/2215 20005KT 9999 FEW050 TEMPO 2116/2207 SHRA SCT020TCU BKN030

Osservazioni e previsioni meteorologiche di più di 4000 aeroporti (messaggi METAR e TAF).

Le stazioni disponibili sono rappresentate dai dischi gialli e rossi sulla carta.

Puntare il mouse per vedere il nome della stazione.

Clicca sopra per visualizzare le osservazioni e previsioni meteorologiche.

Per cambiare la mappa : fare clic sui pulsanti verdi con una croce nera per ingrandire, il pulsante verde con un trattino per diminuire, o sulla freccia verde per le mappe adiacenti.


METAR-TAF: